Terminal Aerodrome Forecast
Issued by NWS Houston/Galveston, TX

Home | Current Version | Previous Version | Text Only | Print | Product List | Glossary On
Versions: 1 2 3 4 5 6 7 8 9 10 11 12 13
000
FTUS44 KHGX 251130
TAFCLL
TAF
KCLL 251130Z 2512/2612 12004KT P6SM SCT110 BKN250
     FM251700 16006KT P6SM VCSH SCT040
     FM251900 VRB05KT P6SM VCTS BKN045CB
      TEMPO 2520/2524 TSRA
     FM260200 VRB04KT P6SM VCSH SCT040
     FM260600 VRB02KT P6SM BKN120=

USA.gov is the U.S. government's official web portal to all federal, state and local government web resources and services.